Time;durP1;ratioP1;P1;durP2;ratioP2;P2;SDS_P1;SDS_P2;PMS_P1;PMS_P2;Temp;Humidity;BMP_temperature;BMP_pressure;BME280_temperature;BME280_humidity;BME280_pressure;Samples;Min_cycle;Max_cycle;Signal;HPM_P1;HPM_P2
2021/11/12 05:09:37;;;;;;;65.10;23.00;;;9.20;99.90;;;;;;4895375;29;20726;-70
2021/11/12 05:11:58;;;;;;;70.10;25.48;;;9.20;99.90;;;;;;4896920;29;20295;-69
2021/11/12 05:45:08;;;;;;;56.85;21.92;;;9.20;99.90;;;;;;4896521;29;20255;-72
2021/11/12 05:50:34;;;;;;;60.67;24.48;;;9.10;99.90;;;;;;4871970;29;20274;-70
2021/11/12 05:55:44;;;;;;;60.50;22.00;;;9.10;99.90;;;;;;4898803;29;20223;-71
2021/11/12 05:58:11;;;;;;;61.60;22.50;;;9.10;99.90;;;;;;4897687;29;20322;-71
2021/11/12 06:00:38;;;;;;;64.75;22.77;;;9.10;99.90;;;;;;4900423;29;20249;-71
2021/11/12 06:03:04;;;;;;;55.17;20.70;;;9.10;99.90;;;;;;4915274;29;20262;-71
2021/11/12 06:05:32;;;;;;;54.28;19.83;;;9.10;99.90;;;;;;4915087;29;20225;-71
2021/11/12 06:07:59;;;;;;;50.90;20.00;;;9.10;99.90;;;;;;4915027;29;20591;-71
2021/11/12 06:10:26;;;;;;;50.55;18.40;;;9.10;99.90;;;;;;4915230;29;20325;-69
2021/11/12 06:12:53;;;;;;;46.92;19.35;;;9.10;99.90;;;;;;4914744;29;20214;-71
2021/11/12 06:15:19;;;;;;;46.67;17.85;;;9.10;99.90;;;;;;4915113;29;20210;-71
2021/11/12 06:17:47;;;;;;;36.25;17.67;;;9.10;99.90;;;;;;4914420;29;20211;-71
2021/11/12 06:20:15;;;;;;;28.52;15.48;;;9.10;99.90;;;;;;4915003;29;20230;-71
2021/11/12 06:22:43;;;;;;;32.83;16.33;;;9.00;99.90;;;;;;4914632;29;20214;-72
2021/11/12 06:25:09;;;;;;;27.40;15.80;;;9.10;99.90;;;;;;4914888;29;20265;-71
2021/11/12 06:27:36;;;;;;;30.15;15.85;;;9.00;99.90;;;;;;4913923;29;20576;-70
2021/11/12 06:30:05;;;;;;;34.60;17.50;;;9.00;99.90;;;;;;4915167;29;20230;-72
2021/11/12 06:32:31;;;;;;;33.03;16.25;;;9.00;99.90;;;;;;4911457;29;20621;-72
2021/11/12 06:34:58;;;;;;;35.33;17.90;;;9.00;99.90;;;;;;4914679;29;20218;-72
2021/11/12 06:37:25;;;;;;;34.22;15.48;;;9.00;99.90;;;;;;4914524;29;20215;-72
2021/11/12 06:39:53;;;;;;;34.20;15.55;;;9.00;99.90;;;;;;4914420;29;20308;-71
2021/11/12 06:42:22;;;;;;;27.08;13.00;;;9.00;99.90;;;;;;4913883;29;20738;-72
2021/11/12 06:50:17;;;;;;;29.67;15.00;;;9.00;99.90;;;;;;4914585;29;20248;-72
2021/11/12 06:52:46;;;;;;;27.65;14.40;;;9.00;99.90;;;;;;4914548;29;20671;-71
2021/11/12 06:55:16;;;;;;;31.25;13.70;;;9.00;99.90;;;;;;4915021;29;20263;-70
2021/11/12 06:57:44;;;;;;;33.95;14.50;;;9.00;99.90;;;;;;4914153;29;20218;-71
2021/11/12 07:00:14;;;;;;;28.65;14.18;;;9.00;99.90;;;;;;4914434;29;20236;-72
2021/11/12 07:02:41;;;;;;;30.20;13.35;;;9.00;99.90;;;;;;4913372;29;20222;-71
2021/11/12 07:05:09;;;;;;;24.42;14.15;;;9.00;99.90;;;;;;4914986;29;20238;-72
2021/11/12 07:07:36;;;;;;;32.20;15.48;;;9.00;99.90;;;;;;4914308;29;20218;-71
2021/11/12 07:10:03;;;;;;;34.40;15.27;;;9.00;99.90;;;;;;4914483;29;20316;-73
2021/11/12 07:12:31;;;;;;;32.03;15.63;;;9.00;99.90;;;;;;4921060;29;20231;-72
2021/11/12 07:14:58;;;;;;;35.75;15.13;;;9.00;99.90;;;;;;4924838;29;20214;-72
2021/11/12 07:17:25;;;;;;;35.08;14.95;;;9.10;99.90;;;;;;4919447;29;20628;-71
2021/11/12 07:19:52;;;;;;;33.40;14.35;;;9.10;99.90;;;;;;4914668;29;20230;-70
2021/11/12 07:22:18;;;;;;;30.25;14.02;;;9.10;99.90;;;;;;4906063;29;20231;-69
2021/11/12 07:24:45;;;;;;;29.60;14.95;;;9.10;99.90;;;;;;4895359;29;20215;-68
2021/11/12 07:27:13;;;;;;;31.40;14.80;;;9.10;99.90;;;;;;4895081;29;20596;-70
2021/11/12 07:29:44;;;;;;;28.05;15.32;;;9.10;99.90;;;;;;4895604;29;20268;-71
2021/11/12 07:32:12;;;;;;;35.25;14.25;;;9.10;99.90;;;;;;4894270;29;20303;-70
2021/11/12 07:34:39;;;;;;;32.67;15.73;;;9.10;99.90;;;;;;4895486;29;20208;-70
2021/11/12 07:37:10;;;;;;;31.48;14.70;;;9.10;99.90;;;;;;4895294;29;20219;-70
2021/11/12 07:39:47;;;;;;;29.10;13.63;;;9.10;99.90;;;;;;4895074;29;20247;-69
2021/11/12 07:42:20;;;;;;;30.33;14.48;;;9.10;99.90;;;;;;4894724;29;20234;-69
2021/11/12 07:45:01;;;;;;;28.00;13.27;;;9.10;99.90;;;;;;4895436;29;20409;-69
2021/11/12 07:47:27;;;;;;;28.83;13.45;;;9.10;99.90;;;;;;4894811;29;20215;-70
2021/11/12 07:49:57;;;;;;;27.67;13.73;;;9.10;99.90;;;;;;4894897;29;20215;-71
2021/11/12 07:52:27;;;;;;;29.70;12.43;;;9.10;99.90;;;;;;4895113;29;20227;-69
2021/11/12 07:54:54;;;;;;;25.83;12.70;;;9.10;99.90;;;;;;4895239;29;20298;-67
2021/11/12 07:57:21;;;;;;;25.75;11.68;;;9.10;99.90;;;;;;4911437;29;20546;-68
2021/11/12 07:59:49;;;;;;;26.48;12.57;;;9.10;99.90;;;;;;4913965;29;20685;-68
2021/11/12 08:02:17;;;;;;;34.72;15.10;;;9.10;99.90;;;;;;4913640;29;20617;-68
2021/11/12 08:04:44;;;;;;;25.92;14.77;;;9.10;99.90;;;;;;4914884;29;20244;-68
2021/11/12 08:07:11;;;;;;;28.65;14.00;;;9.10;99.90;;;;;;4914709;29;20274;-69
2021/11/12 08:09:41;;;;;;;27.40;14.80;;;9.20;99.90;;;;;;4914409;29;20211;-68
2021/11/12 08:12:10;;;;;;;28.52;15.23;;;9.20;99.90;;;;;;4913934;29;20234;-69
2021/11/12 08:14:40;;;;;;;22.10;12.27;;;9.20;99.90;;;;;;4914710;29;20222;-70
2021/11/12 08:17:17;;;;;;;21.45;11.60;;;9.20;99.90;;;;;;4917292;29;20281;-70
2021/11/12 08:19:46;;;;;;;19.10;10.68;;;9.20;99.90;;;;;;4917393;29;20249;-69
2021/11/12 08:22:16;;;;;;;21.73;12.40;;;9.20;99.90;;;;;;4917275;29;20234;-69
2021/11/12 08:24:49;;;;;;;21.58;11.65;;;9.20;99.90;;;;;;4917430;29;20238;-68
2021/11/12 08:33:06;;;;;;;16.67;10.93;;;9.20;99.90;;;;;;4903791;29;20488;-70
2021/11/12 08:35:40;;;;;;;16.70;10.57;;;9.20;99.90;;;;;;4917071;29;20218;-69
2021/11/12 08:38:21;;;;;;;13.70;9.93;;;9.20;99.90;;;;;;4916821;29;20663;-69
2021/11/12 08:41:03;;;;;;;15.15;9.20;;;9.20;99.90;;;;;;4916195;29;20226;-69
2021/11/12 08:43:32;;;;;;;16.35;10.27;;;9.20;99.90;;;;;;4916499;29;20688;-70
2021/11/12 08:46:07;;;;;;;16.20;11.45;;;9.20;99.90;;;;;;4917018;29;20318;-70
2021/11/12 08:48:41;;;;;;;14.27;10.10;;;9.20;99.90;;;;;;4916076;29;20719;-70
2021/11/12 08:51:12;;;;;;;14.52;10.80;;;9.30;99.90;;;;;;4916436;29;20237;-73
2021/11/12 08:53:40;;;;;;;16.35;11.50;;;9.30;99.90;;;;;;4916665;29;20210;-69
2021/11/12 08:56:12;;;;;;;17.00;10.30;;;9.30;99.90;;;;;;4916260;29;20271;-71
2021/11/12 08:58:39;;;;;;;15.70;11.20;;;9.40;99.90;;;;;;4916479;29;20278;-70
2021/11/12 09:01:06;;;;;;;16.35;11.45;;;9.40;99.90;;;;;;4916478;29;20345;-71
2021/11/12 09:03:34;;;;;;;16.05;11.32;;;9.40;99.90;;;;;;4916030;29;20221;-70
2021/11/12 09:06:01;;;;;;;17.10;11.70;;;9.50;99.90;;;;;;4916278;29;20222;-70
2021/11/12 09:08:28;;;;;;;15.23;10.57;;;9.50;99.90;;;;;;4916281;29;20215;-71
2021/11/12 09:10:55;;;;;;;13.48;10.45;;;9.60;99.90;;;;;;4916024;29;20665;-71
2021/11/12 09:13:23;;;;;;;18.98;13.25;;;9.60;99.90;;;;;;4916570;29;20215;-71
2021/11/12 09:15:53;;;;;;;28.80;19.73;;;9.60;99.90;;;;;;4916294;29;20234;-71
2021/11/12 09:18:22;;;;;;;21.42;14.82;;;9.60;99.90;;;;;;4915427;29;20211;-71
2021/11/12 09:20:52;;;;;;;19.52;13.65;;;9.60;99.90;;;;;;4916668;29;20692;-71
2021/11/12 09:23:19;;;;;;;20.20;11.68;;;9.60;99.90;;;;;;4915300;29;20617;-71
2021/11/12 09:25:45;;;;;;;18.20;11.93;;;9.60;99.90;;;;;;4915417;29;20636;-71
2021/11/12 09:28:13;;;;;;;14.75;10.70;;;9.70;99.90;;;;;;4915926;29;20214;-71
2021/11/12 09:30:40;;;;;;;15.48;10.43;;;9.70;99.90;;;;;;4915956;29;20703;-71
2021/11/12 09:33:07;;;;;;;15.75;11.23;;;9.70;99.90;;;;;;4915881;29;20225;-71
2021/11/12 09:35:35;;;;;;;12.75;7.05;;;9.70;99.90;;;;;;4916047;29;20217;-70
2021/11/12 09:38:03;;;;;;;13.55;10.50;;;9.70;99.90;;;;;;4915739;29;20210;-71
2021/11/12 09:40:31;;;;;;;18.67;8.82;;;9.70;99.90;;;;;;4915573;29;20210;-71
2021/11/12 09:42:59;;;;;;;15.57;10.60;;;9.70;99.90;;;;;;4916101;29;20218;-71
2021/11/12 09:45:26;;;;;;;12.73;10.10;;;9.70;99.90;;;;;;4915815;29;20215;-71
2021/11/12 09:47:54;;;;;;;18.17;12.27;;;9.80;99.90;;;;;;4915413;29;20281;-71
2021/11/12 09:50:25;;;;;;;17.35;12.10;;;9.80;99.90;;;;;;4915658;29;20496;-70
2021/11/12 09:52:52;;;;;;;13.75;10.07;;;9.80;99.90;;;;;;4915914;29;20214;-69
2021/11/12 09:55:21;;;;;;;17.60;11.57;;;9.80;99.90;;;;;;4907510;29;20222;-70
2021/11/12 09:57:49;;;;;;;12.63;9.55;;;9.80;99.90;;;;;;4896313;29;20246;-70
2021/11/12 10:00:19;;;;;;;12.80;10.38;;;9.90;99.90;;;;;;4896545;29;20309;-69
2021/11/12 10:02:49;;;;;;;14.85;12.25;;;9.90;99.90;;;;;;4896262;29;20668;-69
2021/11/12 10:05:30;;;;;;;14.73;11.63;;;9.90;99.90;;;;;;4898721;29;20215;-70
2021/11/12 10:07:56;;;;;;;19.20;12.02;;;10.00;99.90;;;;;;4899760;29;20532;-70
2021/11/12 10:10:25;;;;;;;15.50;10.98;;;10.10;99.90;;;;;;4901664;29;20214;-71
2021/11/12 10:12:54;;;;;;;14.85;11.00;;;10.20;99.90;;;;;;4900375;29;20649;-71
2021/11/12 10:15:24;;;;;;;12.60;10.10;;;10.20;99.90;;;;;;4899772;29;20218;-71
2021/11/12 10:17:52;;;;;;;16.42;11.80;;;10.40;99.90;;;;;;4897791;29;20623;-72
2021/11/12 10:20:21;;;;;;;14.90;11.52;;;10.40;99.90;;;;;;4897095;29;20218;-71
2021/11/12 10:22:49;;;;;;;13.82;10.10;;;10.40;99.90;;;;;;4896317;29;20691;-72
2021/11/12 10:25:17;;;;;;;17.98;11.05;;;10.40;99.90;;;;;;4896395;29;20211;-71
2021/11/12 10:27:50;;;;;;;19.13;11.25;;;10.40;99.90;;;;;;4896767;29;20223;-71
2021/11/12 10:30:21;;;;;;;17.20;11.23;;;10.30;99.90;;;;;;4897420;29;20302;-71
2021/11/12 10:32:48;;;;;;;19.67;12.40;;;10.40;99.90;;;;;;4897978;29;20306;-72
2021/11/12 10:35:23;;;;;;;22.63;13.32;;;10.40;99.90;;;;;;4897001;29;20289;-70
2021/11/12 10:37:50;;;;;;;21.08;13.10;;;10.50;99.90;;;;;;4895299;29;20219;-69
2021/11/12 10:40:20;;;;;;;23.50;13.65;;;10.60;99.90;;;;;;4896273;29;20593;-70
2021/11/12 10:42:50;;;;;;;19.65;12.23;;;10.60;99.90;;;;;;4895476;29;20231;-71
2021/11/12 10:45:19;;;;;;;20.20;13.13;;;10.70;99.90;;;;;;4904240;29;20211;-69
2021/11/12 10:47:50;;;;;;;23.00;13.18;;;10.60;99.90;;;;;;4913941;29;20249;-69
2021/11/12 10:50:18;;;;;;;25.45;13.80;;;10.70;99.90;;;;;;4914887;29;20534;-70
2021/11/12 10:52:47;;;;;;;18.75;12.35;;;10.80;99.90;;;;;;4914376;29;20237;-70
2021/11/12 10:55:17;;;;;;;23.42;11.60;;;10.80;99.90;;;;;;4915010;29;20210;-69
2021/11/12 10:57:50;;;;;;;19.30;12.05;;;10.80;99.90;;;;;;4914053;29;20252;-69
2021/11/12 11:00:20;;;;;;;21.35;11.55;;;10.80;99.90;;;;;;4914250;29;20214;-69
2021/11/12 11:02:50;;;;;;;12.85;9.93;;;10.80;99.90;;;;;;4914661;29;20238;-70
2021/11/12 11:05:20;;;;;;;11.82;8.02;;;10.90;99.90;;;;;;4914857;29;20637;-69
2021/11/12 11:07:52;;;;;;;9.73;8.73;;;10.80;99.90;;;;;;4915250;29;20218;-69
2021/11/12 11:10:22;;;;;;;10.60;8.30;;;10.80;99.90;;;;;;4914835;29;20221;-71
2021/11/12 11:12:51;;;;;;;7.50;6.35;;;10.70;99.90;;;;;;4914212;29;20680;-71
2021/11/12 11:15:21;;;;;;;7.28;6.07;;;10.70;99.90;;;;;;4914810;29;20289;-69
2021/11/12 11:18:06;;;;;;;7.70;6.93;;;10.70;99.90;;;;;;4950196;23;20588;-71
2021/11/12 11:20:33;;;;;;;7.20;6.22;;;10.60;99.90;;;;;;4933339;29;20217;-74
2021/11/12 11:23:01;;;;;;;6.60;6.05;;;10.60;99.90;;;;;;4932464;29;20212;-72
2021/11/12 11:25:29;;;;;;;9.18;6.05;;;10.60;99.90;;;;;;4932788;29;20261;-71
2021/11/12 11:28:00;;;;;;;7.82;7.10;;;10.60;99.90;;;;;;4933017;29;20244;-72
2021/11/12 11:30:28;;;;;;;8.05;6.65;;;10.60;99.90;;;;;;4933137;29;20305;-72
2021/11/12 11:32:55;;;;;;;8.40;6.25;;;10.60;99.90;;;;;;4932549;29;20726;-72
2021/11/12 11:35:22;;;;;;;9.15;6.80;;;10.50;99.90;;;;;;4933222;29;20321;-73
2021/11/12 11:37:53;;;;;;;10.15;6.70;;;10.50;99.90;;;;;;4932699;29;20233;-72
2021/11/12 11:40:22;;;;;;;7.20;6.03;;;10.40;99.90;;;;;;4933473;29;20240;-71
2021/11/12 11:42:49;;;;;;;7.68;6.97;;;10.50;99.90;;;;;;4932654;29;20248;-72
2021/11/12 11:45:18;;;;;;;4.85;4.30;;;10.40;99.90;;;;;;4933055;29;20698;-72
2021/11/12 11:47:46;;;;;;;6.38;5.78;;;10.40;99.90;;;;;;4932284;29;20230;-72
2021/11/12 11:50:21;;;;;;;6.22;5.63;;;10.30;99.90;;;;;;4935962;29;20531;-71
2021/11/12 11:52:48;;;;;;;6.18;4.95;;;10.30;99.90;;;;;;4936794;29;20502;-72
2021/11/12 11:55:36;;;;;;;8.43;6.18;;;10.30;99.90;;;;;;4929349;29;20627;-72
2021/11/12 11:58:38;;;;;;;7.57;5.20;;;10.30;99.90;;;;;;4936364;29;20238;-72
2021/11/12 12:01:34;;;;;;;7.38;5.40;;;10.30;99.90;;;;;;4936624;29;20236;-72
2021/11/12 12:04:40;;;;;;;5.35;4.95;;;10.30;99.90;;;;;;4936591;29;20235;-72
2021/11/12 12:07:26;;;;;;;5.70;4.10;;;10.30;99.90;;;;;;4936149;29;20694;-72
2021/11/12 12:10:02;;;;;;;4.80;3.83;;;10.30;99.90;;;;;;4936341;29;20547;-72
2021/11/12 12:12:41;;;;;;;5.15;3.50;;;10.30;99.90;;;;;;4935813;29;20240;-72
2021/11/12 12:15:39;;;;;;;3.45;3.15;;;10.30;99.90;;;;;;4936310;29;20209;-72
2021/11/12 12:18:26;;;;;;;4.38;3.80;;;10.30;99.90;;;;;;4935562;29;20257;-72
2021/11/12 13:22:42;;;;;;;6.93;6.00;;;10.30;99.90;;;;;;4933563;29;20245;-72
2021/11/12 13:25:11;;;;;;;7.07;6.38;;;10.30;99.90;;;;;;4935335;29;20567;-72
2021/11/12 13:27:40;;;;;;;6.20;5.60;;;10.40;99.90;;;;;;4934196;29;20233;-72
2021/11/12 13:30:08;;;;;;;6.07;5.47;;;10.40;99.90;;;;;;4935654;29;20206;-72
2021/11/12 13:32:38;;;;;;;6.35;5.53;;;10.40;99.90;;;;;;4934278;29;20230;-73
2021/11/12 13:35:05;;;;;;;7.55;5.63;;;10.30;99.90;;;;;;4935451;29;20202;-72
2021/11/12 13:37:32;;;;;;;7.30;6.70;;;10.20;99.90;;;;;;4935239;29;20316;-71
2021/11/12 13:40:16;;;;;;;7.65;6.70;;;10.20;99.90;;;;;;4935405;29;20671;-71
2021/11/12 13:42:47;;;;;;;7.82;7.05;;;10.10;99.90;;;;;;4934746;29;20232;-73
2021/11/12 13:45:17;;;;;;;8.00;7.18;;;10.10;99.90;;;;;;4935644;29;20210;-73
2021/11/12 13:47:45;;;;;;;8.15;7.13;;;10.00;99.90;;;;;;4933912;29;20237;-72
2021/11/12 13:50:14;;;;;;;11.30;6.90;;;9.90;99.90;;;;;;4935476;29;20352;-72
2021/11/12 13:52:43;;;;;;;9.20;8.30;;;9.90;99.90;;;;;;4934518;29;20257;-75
2021/11/12 13:55:15;;;;;;;9.20;8.30;;;9.80;99.90;;;;;;4935047;29;20213;-72
2021/11/12 13:57:57;;;;;;;8.88;8.18;;;9.70;99.90;;;;;;4933377;29;20241;-71
2021/11/12 14:00:28;;;;;;;9.60;8.60;;;9.70;99.90;;;;;;4934393;29;20253;-73
2021/11/12 14:03:00;;;;;;;9.65;8.75;;;9.70;99.90;;;;;;4934028;29;20284;-73
2021/11/12 14:05:27;;;;;;;10.45;8.43;;;9.60;99.90;;;;;;4934739;29;20209;-72
2021/11/12 14:08:15;;;;;;;9.57;8.57;;;9.50;99.90;;;;;;4934710;29;20234;-73
2021/11/12 14:10:44;;;;;;;9.68;8.70;;;9.50;99.90;;;;;;4927864;29;20216;-73
2021/11/12 14:13:15;;;;;;;10.27;8.98;;;9.40;99.90;;;;;;4930474;29;20293;-76
2021/11/12 14:15:55;;;;;;;10.40;9.27;;;9.40;99.90;;;;;;4915253;29;20322;-72
2021/11/12 14:18:41;;;;;;;11.73;9.20;;;9.30;99.90;;;;;;4915317;29;20249;-73
2021/11/12 14:21:20;;;;;;;9.35;7.60;;;9.30;99.90;;;;;;4915810;29;20215;-73
2021/11/12 14:23:55;;;;;;;10.55;9.43;;;9.10;99.90;;;;;;4915779;29;20206;-74
2021/11/12 14:26:29;;;;;;;10.40;9.40;;;9.10;99.90;;;;;;4915736;29;20236;-74
2021/11/12 14:29:03;;;;;;;7.22;6.53;;;9.00;99.90;;;;;;4916437;29;20631;-74
2021/11/12 14:34:23;;;;;;;10.57;9.45;;;8.90;99.90;;;;;;4906383;29;20210;-73
2021/11/12 14:36:54;;;;;;;10.25;9.23;;;8.90;99.90;;;;;;4915681;29;20241;-74
2021/11/12 14:39:48;;;;;;;11.90;10.32;;;8.90;99.90;;;;;;4915709;29;20309;-74
2021/11/12 14:45:12;;;;;;;10.35;9.40;;;8.80;99.90;;;;;;4929004;29;20216;-72
2021/11/12 14:47:45;;;;;;;13.13;10.93;;;8.70;99.90;;;;;;4933937;29;20324;-73
2021/11/12 14:50:29;;;;;;;12.50;11.30;;;8.70;99.90;;;;;;4934912;29;20217;-73
2021/11/12 14:53:17;;;;;;;13.48;11.18;;;8.60;99.90;;;;;;4934975;29;20232;-74
2021/11/12 14:55:47;;;;;;;11.32;10.10;;;8.60;99.90;;;;;;4933873;29;20324;-73
2021/11/12 14:58:16;;;;;;;13.35;11.80;;;8.60;99.90;;;;;;4934385;29;20229;-74
2021/11/12 15:00:45;;;;;;;12.20;9.77;;;8.50;99.90;;;;;;4934815;29;20257;-72
2021/11/12 15:03:12;;;;;;;13.10;11.80;;;8.40;99.90;;;;;;4934145;29;20582;-73
2021/11/12 15:05:39;;;;;;;14.80;11.35;;;8.40;99.90;;;;;;4934601;29;20264;-72
2021/11/12 15:08:11;;;;;;;18.25;12.98;;;8.30;99.90;;;;;;4934285;29;20263;-73
2021/11/12 15:10:39;;;;;;;14.07;12.48;;;8.30;99.90;;;;;;4934425;29;20213;-73
2021/11/12 15:13:06;;;;;;;12.40;11.10;;;8.20;99.90;;;;;;4934511;29;20230;-73
2021/11/12 15:15:33;;;;;;;13.65;12.20;;;8.20;99.90;;;;;;4934350;29;20221;-73
2021/11/12 15:18:05;;;;;;;19.73;13.25;;;8.10;99.90;;;;;;4933859;29;20288;-73
2021/11/12 15:20:33;;;;;;;14.98;13.38;;;8.10;99.90;;;;;;4934264;29;20210;-73
2021/11/12 15:25:45;;;;;;;17.42;14.40;;;8.00;99.90;;;;;;4932617;29;20224;-74
2021/11/12 15:28:19;;;;;;;20.98;15.85;;;8.00;99.90;;;;;;4937866;29;20658;-73
2021/11/12 15:30:52;;;;;;;18.92;14.02;;;7.90;99.90;;;;;;4937998;29;20300;-73
2021/11/12 15:33:20;;;;;;;22.45;15.82;;;7.90;99.90;;;;;;4933359;29;20698;-74
2021/11/12 15:35:48;;;;;;;17.92;14.50;;;7.80;99.90;;;;;;4937959;29;20206;-73
2021/11/12 15:38:19;;;;;;;18.23;13.80;;;7.80;99.90;;;;;;4937109;29;20229;-74
2021/11/12 15:40:47;;;;;;;17.40;15.63;;;7.80;99.90;;;;;;4937605;29;20218;-73
2021/11/12 15:43:20;;;;;;;25.63;16.00;;;7.70;99.90;;;;;;4937270;29;20624;-73
2021/11/12 15:45:56;;;;;;;20.95;17.02;;;7.70;99.90;;;;;;4937270;29;20552;-73
2021/11/12 15:48:26;;;;;;;19.33;14.23;;;7.60;99.90;;;;;;4937243;29;20280;-72
2021/11/12 15:51:05;;;;;;;22.27;16.08;;;7.60;99.90;;;;;;4937690;29;20218;-74
2021/11/12 15:53:37;;;;;;;15.77;11.90;;;7.50;99.90;;;;;;4937643;29;20597;-72
2021/11/12 15:56:23;;;;;;;21.33;16.98;;;7.50;99.90;;;;;;4937159;29;20233;-73
2021/11/12 15:58:55;;;;;;;25.20;17.95;;;7.50;99.90;;;;;;4937478;29;20612;-73
2021/11/12 16:01:52;;;;;;;24.00;17.55;;;7.50;99.90;;;;;;4937325;29;20293;-73
2021/11/12 16:07:32;;;;;;;28.13;18.90;;;7.40;99.90;;;;;;4937147;29;20258;-74
2021/11/12 16:10:19;;;;;;;25.90;19.00;;;7.40;99.90;;;;;;4938049;29;20229;-74
2021/11/12 16:12:50;;;;;;;28.88;20.05;;;7.30;99.90;;;;;;4930158;29;20226;-72
2021/11/12 16:15:29;;;;;;;23.17;16.60;;;7.30;99.90;;;;;;4938799;29;20206;-73
2021/11/12 16:18:04;;;;;;;24.58;19.13;;;7.30;99.90;;;;;;4936440;29;20690;-74
2021/11/12 16:26:08;;;;;;;29.55;20.60;;;7.10;99.90;;;;;;4936589;29;20209;-73
2021/11/12 16:28:46;;;;;;;25.70;19.48;;;7.10;99.90;;;;;;4936727;29;20222;-73
2021/11/12 16:31:13;;;;;;;25.88;18.77;;;7.00;99.90;;;;;;4937109;29;20222;-72
2021/11/12 16:33:40;;;;;;;29.77;18.70;;;7.00;99.90;;;;;;4937408;29;20233;-73
2021/11/12 16:36:09;;;;;;;29.02;18.35;;;7.00;99.90;;;;;;4936059;29;20206;-74
2021/11/12 16:38:36;;;;;;;29.17;19.83;;;6.90;99.90;;;;;;4937162;29;20316;-74
2021/11/12 16:41:08;;;;;;;26.90;19.35;;;6.90;99.90;;;;;;4937000;29;20217;-72
2021/11/12 16:43:41;;;;;;;26.52;19.27;;;6.90;99.90;;;;;;4931866;29;20248;-74
2021/11/12 16:46:21;;;;;;;31.38;21.17;;;6.90;99.90;;;;;;4936733;29;20209;-73
2021/11/12 16:48:56;;;;;;;34.08;23.15;;;6.90;99.90;;;;;;4937437;29;20624;-74
2021/11/12 16:54:24;;;;;;;31.75;24.48;;;6.80;99.90;;;;;;4924180;29;20285;-74
2021/11/12 16:57:01;;;;;;;30.70;21.25;;;6.80;99.90;;;;;;4936424;29;20233;-72
2021/11/12 16:59:30;;;;;;;23.88;14.70;;;6.70;99.90;;;;;;4936788;29;20214;-74
2021/11/12 17:02:13;;;;;;;34.05;21.48;;;6.60;99.90;;;;;;4936544;29;20209;-74
2021/11/12 17:04:47;;;;;;;26.83;19.50;;;6.60;99.90;;;;;;4936415;29;20530;-73
2021/11/12 17:07:20;;;;;;;33.58;22.08;;;6.60;99.90;;;;;;4936107;29;20301;-73
2021/11/12 17:09:53;;;;;;;33.72;22.88;;;6.50;99.90;;;;;;4935752;29;20218;-73
2021/11/12 17:12:45;;;;;;;34.63;22.70;;;6.60;99.90;;;;;;4935566;29;20217;-73
2021/11/12 17:18:10;;;;;;;34.63;22.75;;;6.50;99.90;;;;;;4934567;29;20275;-74
2021/11/12 17:48:35;;;;;;;38.40;22.80;;;6.10;99.90;;;;;;4935574;29;20308;-73
2021/11/12 17:54:09;;;;;;;39.13;21.65;;;6.10;99.90;;;;;;4933484;29;20245;-73
2021/11/12 18:02:10;;;;;;;35.63;21.85;;;6.10;99.90;;;;;;4935025;29;20209;-75
2021/11/12 18:04:52;;;;;;;40.70;24.30;;;6.10;99.90;;;;;;4934894;29;20213;-72
2021/11/12 18:07:33;;;;;;;43.72;23.73;;;6.10;99.90;;;;;;4934118;29;20229;-72
2021/11/12 18:10:38;;;;;;;43.15;26.77;;;6.10;99.90;;;;;;4934414;29;20276;-72
2021/11/12 21:48:45;;;;;;;52.15;24.27;;;6.00;99.90;;;;;;5170317;27;21046;-69
2021/11/12 21:51:18;;;;;;;57.95;26.55;;;6.10;99.90;;;;;;5170293;27;20560;-70
2021/11/12 21:53:45;;;;;;;53.13;25.00;;;6.10;99.90;;;;;;5170448;27;20211;-70
2021/11/12 21:56:11;;;;;;;51.30;25.35;;;6.10;99.90;;;;;;5169753;27;20202;-70
2021/11/12 21:58:39;;;;;;;46.63;25.35;;;6.10;99.90;;;;;;5170071;27;20223;-71
